sensor_id;sensor_type;location;lat;lon;timestamp;temperature;humidity
51733;DHT22;39139;53.144;6.244;2023-04-03T00:01:11;4.10;99.90
51733;DHT22;39139;53.144;6.244;2023-04-03T00:03:36;3.10;99.90
51733;DHT22;39139;53.144;6.244;2023-04-03T00:06:03;3.10;99.90
51733;DHT22;39139;53.144;6.244;2023-04-03T00:08:29;3.10;99.90
51733;DHT22;39139;53.144;6.244;2023-04-03T00:10:56;3.00;99.90
51733;DHT22;39139;53.144;6.244;2023-04-03T00:13:23;3.10;99.90
51733;DHT22;39139;53.144;6.244;2023-04-03T00:15:49;3.00;99.90
51733;DHT22;39139;53.144;6.244;2023-04-03T00:18:14;3.00;99.90
51733;DHT22;39139;53.144;6.244;2023-04-03T00:20:40;3.00;99.90
51733;DHT22;39139;53.144;6.244;2023-04-03T00:23:06;3.00;99.90
51733;DHT22;39139;53.144;6.244;2023-04-03T00:25:32;2.90;99.90
51733;DHT22;39139;53.144;6.244;2023-04-03T00:27:57;2.90;99.90
51733;DHT22;39139;53.144;6.244;2023-04-03T00:30:23;2.90;99.90
51733;DHT22;39139;53.144;6.244;2023-04-03T00:32:50;2.90;99.90
51733;DHT22;39139;53.144;6.244;2023-04-03T00:35:16;2.90;99.90
51733;DHT22;39139;53.144;6.244;2023-04-03T00:37:42;2.80;99.90
51733;DHT22;39139;53.144;6.244;2023-04-03T00:40:09;3.00;99.90
51733;DHT22;39139;53.144;6.244;2023-04-03T00:42:40;2.80;99.90
51733;DHT22;39139;53.144;6.244;2023-04-03T00:45:23;2.80;99.90
51733;DHT22;39139;53.144;6.244;2023-04-03T00:47:49;2.70;99.90
51733;DHT22;39139;53.144;6.244;2023-04-03T00:50:15;2.70;99.90
51733;DHT22;39139;53.144;6.244;2023-04-03T00:52:41;2.70;99.90
51733;DHT22;39139;53.144;6.244;2023-04-03T00:55:08;2.70;99.90
51733;DHT22;39139;53.144;6.244;2023-04-03T00:57:34;2.60;99.90
51733;DHT22;39139;53.144;6.244;2023-04-03T01:00:09;2.60;99.90
51733;DHT22;39139;53.144;6.244;2023-04-03T01:02:35;2.60;99.90
51733;DHT22;39139;53.144;6.244;2023-04-03T01:05:01;2.50;99.90
51733;DHT22;39139;53.144;6.244;2023-04-03T01:07:30;2.50;99.90
51733;DHT22;39139;53.144;6.244;2023-04-03T01:09:58;2.40;99.90
51733;DHT22;39139;53.144;6.244;2023-04-03T01:12:31;2.40;99.90
51733;DHT22;39139;53.144;6.244;2023-04-03T01:15:00;2.40;99.90
51733;DHT22;39139;53.144;6.244;2023-04-03T01:23:13;2.30;99.90
51733;DHT22;39139;53.144;6.244;2023-04-03T01:25:52;2.30;99.90
51733;DHT22;39139;53.144;6.244;2023-04-03T01:28:30;2.20;99.90
51733;DHT22;39139;53.144;6.244;2023-04-03T01:31:19;2.40;99.90
51733;DHT22;39139;53.144;6.244;2023-04-03T01:33:45;2.20;99.90
51733;DHT22;39139;53.144;6.244;2023-04-03T01:36:25;2.10;99.90
51733;DHT22;39139;53.144;6.244;2023-04-03T01:38:52;2.10;99.90
51733;DHT22;39139;53.144;6.244;2023-04-03T01:41:18;2.00;99.90
51733;DHT22;39139;53.144;6.244;2023-04-03T01:43:46;2.00;99.90
51733;DHT22;39139;53.144;6.244;2023-04-03T01:46:12;2.00;99.90
51733;DHT22;39139;53.144;6.244;2023-04-03T01:48:38;2.00;99.90
51733;DHT22;39139;53.144;6.244;2023-04-03T01:51:03;1.90;99.90
51733;DHT22;39139;53.144;6.244;2023-04-03T01:53:29;2.30;99.90
51733;DHT22;39139;53.144;6.244;2023-04-03T01:55:55;1.80;99.90
51733;DHT22;39139;53.144;6.244;2023-04-03T01:58:20;1.80;99.90
51733;DHT22;39139;53.144;6.244;2023-04-03T02:00:46;1.80;99.90
51733;DHT22;39139;53.144;6.244;2023-04-03T02:03:11;1.70;99.90
51733;DHT22;39139;53.144;6.244;2023-04-03T02:05:38;1.70;99.90
51733;DHT22;39139;53.144;6.244;2023-04-03T02:08:04;1.70;99.90
51733;DHT22;39139;53.144;6.244;2023-04-03T02:10:29;1.60;99.90
51733;DHT22;39139;53.144;6.244;2023-04-03T02:12:55;1.60;99.90
51733;DHT22;39139;53.144;6.244;2023-04-03T02:15:21;1.60;99.90
51733;DHT22;39139;53.144;6.244;2023-04-03T02:17:46;1.50;99.90
51733;DHT22;39139;53.144;6.244;2023-04-03T02:20:12;1.50;99.90
51733;DHT22;39139;53.144;6.244;2023-04-03T02:22:37;0.40;99.90
51733;DHT22;39139;53.144;6.244;2023-04-03T02:25:03;1.40;99.90
51733;DHT22;39139;53.144;6.244;2023-04-03T02:27:29;1.40;99.90
51733;DHT22;39139;53.144;6.244;2023-04-03T02:29:55;1.40;99.90
51733;DHT22;39139;53.144;6.244;2023-04-03T02:32:20;1.40;99.90
51733;DHT22;39139;53.144;6.244;2023-04-03T02:34:46;1.30;99.90
51733;DHT22;39139;53.144;6.244;2023-04-03T02:37:12;1.40;99.90
51733;DHT22;39139;53.144;6.244;2023-04-03T02:39:37;1.30;99.90
51733;DHT22;39139;53.144;6.244;2023-04-03T02:42:03;1.30;99.90
51733;DHT22;39139;53.144;6.244;2023-04-03T02:44:29;1.30;99.90
51733;DHT22;39139;53.144;6.244;2023-04-03T02:46:55;1.20;99.90
51733;DHT22;39139;53.144;6.244;2023-04-03T02:49:21;1.20;99.90
51733;DHT22;39139;53.144;6.244;2023-04-03T02:51:46;1.20;99.90
51733;DHT22;39139;53.144;6.244;2023-04-03T02:54:13;1.20;99.90
51733;DHT22;39139;53.144;6.244;2023-04-03T02:56:38;1.20;99.90
51733;DHT22;39139;53.144;6.244;2023-04-03T02:59:04;1.20;99.90
51733;DHT22;39139;53.144;6.244;2023-04-03T03:01:30;1.10;99.90
51733;DHT22;39139;53.144;6.244;2023-04-03T03:03:58;1.10;99.90
51733;DHT22;39139;53.144;6.244;2023-04-03T03:06:24;1.10;99.90
51733;DHT22;39139;53.144;6.244;2023-04-03T03:08:50;1.00;99.90
51733;DHT22;39139;53.144;6.244;2023-04-03T03:11:16;1.00;99.90
51733;DHT22;39139;53.144;6.244;2023-04-03T03:13:42;1.00;99.90
51733;DHT22;39139;53.144;6.244;2023-04-03T03:16:07;0.90;99.90
51733;DHT22;39139;53.144;6.244;2023-04-03T03:18:33;0.90;99.90
51733;DHT22;39139;53.144;6.244;2023-04-03T03:21:00;0.90;99.90
51733;DHT22;39139;53.144;6.244;2023-04-03T03:23:27;0.90;99.90
51733;DHT22;39139;53.144;6.244;2023-04-03T03:25:58;0.80;99.90
51733;DHT22;39139;53.144;6.244;2023-04-03T03:28:24;0.80;99.90
51733;DHT22;39139;53.144;6.244;2023-04-03T03:30:50;0.80;99.90
51733;DHT22;39139;53.144;6.244;2023-04-03T03:33:16;0.70;99.90
51733;DHT22;39139;53.144;6.244;2023-04-03T03:35:43;0.70;99.90
51733;DHT22;39139;53.144;6.244;2023-04-03T03:38:08;0.70;99.90
51733;DHT22;39139;53.144;6.244;2023-04-03T03:40:34;2.10;99.90
51733;DHT22;39139;53.144;6.244;2023-04-03T03:43:00;1.50;99.90
51733;DHT22;39139;53.144;6.244;2023-04-03T03:45:25;0.60;99.90
51733;DHT22;39139;53.144;6.244;2023-04-03T03:47:51;0.50;99.90
51733;DHT22;39139;53.144;6.244;2023-04-03T03:50:16;0.50;99.90
51733;DHT22;39139;53.144;6.244;2023-04-03T03:52:42;0.40;99.90
51733;DHT22;39139;53.144;6.244;2023-04-03T03:55:08;0.40;99.90
51733;DHT22;39139;53.144;6.244;2023-04-03T03:57:33;0.30;99.90
51733;DHT22;39139;53.144;6.244;2023-04-03T03:59:59;0.30;99.90
51733;DHT22;39139;53.144;6.244;2023-04-03T04:02:25;1.00;99.90
51733;DHT22;39139;53.144;6.244;2023-04-03T04:04:50;0.10;99.90
51733;DHT22;39139;53.144;6.244;2023-04-03T04:07:16;0.00;99.90
51733;DHT22;39139;53.144;6.244;2023-04-03T04:09:41;0.00;99.90
51733;DHT22;39139;53.144;6.244;2023-04-03T04:12:07;-0.10;99.90
51733;DHT22;39139;53.144;6.244;2023-04-03T04:14:33;-0.10;99.90
51733;DHT22;39139;53.144;6.244;2023-04-03T04:16:58;-0.20;99.90
51733;DHT22;39139;53.144;6.244;2023-04-03T04:19:24;-0.20;99.90
51733;DHT22;39139;53.144;6.244;2023-04-03T04:21:50;0.40;99.90
51733;DHT22;39139;53.144;6.244;2023-04-03T04:24:16;-0.20;99.90
51733;DHT22;39139;53.144;6.244;2023-04-03T04:26:41;-0.30;99.90
51733;DHT22;39139;53.144;6.244;2023-04-03T04:29:09;-0.30;99.90
51733;DHT22;39139;53.144;6.244;2023-04-03T04:31:35;-0.30;99.90
51733;DHT22;39139;53.144;6.244;2023-04-03T04:34:00;-0.40;99.90
51733;DHT22;39139;53.144;6.244;2023-04-03T04:36:26;-0.40;99.90
51733;DHT22;39139;53.144;6.244;2023-04-03T04:38:52;-0.40;99.90
51733;DHT22;39139;53.144;6.244;2023-04-03T04:41:20;-0.50;99.90
51733;DHT22;39139;53.144;6.244;2023-04-03T04:43:48;-0.50;99.90
51733;DHT22;39139;53.144;6.244;2023-04-03T04:46:14;-0.50;99.90
51733;DHT22;39139;53.144;6.244;2023-04-03T04:48:39;-0.50;99.90
51733;DHT22;39139;53.144;6.244;2023-04-03T04:51:06;-0.50;99.90
51733;DHT22;39139;53.144;6.244;2023-04-03T04:53:31;-0.50;99.90
51733;DHT22;39139;53.144;6.244;2023-04-03T04:55:57;-0.60;99.90
51733;DHT22;39139;53.144;6.244;2023-04-03T04:58:23;-0.60;99.90
51733;DHT22;39139;53.144;6.244;2023-04-03T05:00:48;0.30;99.90
51733;DHT22;39139;53.144;6.244;2023-04-03T05:03:14;-0.60;99.90
51733;DHT22;39139;53.144;6.244;2023-04-03T05:05:40;-0.30;99.90
51733;DHT22;39139;53.144;6.244;2023-04-03T05:08:06;-0.70;99.90
51733;DHT22;39139;53.144;6.244;2023-04-03T05:10:33;-0.70;99.90
51733;DHT22;39139;53.144;6.244;2023-04-03T05:12:59;-0.80;99.90
51733;DHT22;39139;53.144;6.244;2023-04-03T05:15:25;-0.70;99.90
51733;DHT22;39139;53.144;6.244;2023-04-03T05:17:50;-0.70;99.90
51733;DHT22;39139;53.144;6.244;2023-04-03T05:20:16;-0.70;99.90
51733;DHT22;39139;53.144;6.244;2023-04-03T05:22:42;-0.60;99.90
51733;DHT22;39139;53.144;6.244;2023-04-03T05:25:08;-0.60;99.90
51733;DHT22;39139;53.144;6.244;2023-04-03T05:27:34;-0.50;99.90
51733;DHT22;39139;53.144;6.244;2023-04-03T05:30:00;-0.40;99.90
51733;DHT22;39139;53.144;6.244;2023-04-03T05:32:26;-0.40;99.90
51733;DHT22;39139;53.144;6.244;2023-04-03T05:34:53;-0.30;99.90
51733;DHT22;39139;53.144;6.244;2023-04-03T05:37:19;-0.30;99.90
51733;DHT22;39139;53.144;6.244;2023-04-03T05:39:45;-0.20;99.90
51733;DHT22;39139;53.144;6.244;2023-04-03T05:42:11;-0.20;99.90
51733;DHT22;39139;53.144;6.244;2023-04-03T05:44:37;-0.10;99.90
51733;DHT22;39139;53.144;6.244;2023-04-03T05:47:04;-0.10;99.90
51733;DHT22;39139;53.144;6.244;2023-04-03T05:49:30;0.00;99.90
51733;DHT22;39139;53.144;6.244;2023-04-03T05:51:55;0.10;99.90
51733;DHT22;39139;53.144;6.244;2023-04-03T05:54:29;0.20;99.90
51733;DHT22;39139;53.144;6.244;2023-04-03T05:56:55;0.30;99.90
51733;DHT22;39139;53.144;6.244;2023-04-03T05:59:21;0.50;99.90
51733;DHT22;39139;53.144;6.244;2023-04-03T06:01:47;0.80;99.90
51733;DHT22;39139;53.144;6.244;2023-04-03T06:04:13;1.30;99.90
51733;DHT22;39139;53.144;6.244;2023-04-03T06:06:53;1.70;99.90
51733;DHT22;39139;53.144;6.244;2023-04-03T06:09:20;2.10;99.90
51733;DHT22;39139;53.144;6.244;2023-04-03T06:11:46;2.30;99.90
51733;DHT22;39139;53.144;6.244;2023-04-03T06:14:12;2.30;99.90
51733;DHT22;39139;53.144;6.244;2023-04-03T06:16:37;2.40;99.90
51733;DHT22;39139;53.144;6.244;2023-04-03T06:19:04;2.40;99.90
51733;DHT22;39139;53.144;6.244;2023-04-03T06:21:31;2.60;99.90
51733;DHT22;39139;53.144;6.244;2023-04-03T06:23:57;2.70;99.90
51733;DHT22;39139;53.144;6.244;2023-04-03T06:26:23;3.10;99.90
51733;DHT22;39139;53.144;6.244;2023-04-03T06:28:48;3.60;99.90
51733;DHT22;39139;53.144;6.244;2023-04-03T06:31:14;3.80;99.90
51733;DHT22;39139;53.144;6.244;2023-04-03T06:33:40;3.90;99.90
51733;DHT22;39139;53.144;6.244;2023-04-03T06:36:06;3.90;99.90
51733;DHT22;39139;53.144;6.244;2023-04-03T06:38:33;3.80;99.90
51733;DHT22;39139;53.144;6.244;2023-04-03T06:40:59;3.70;99.90
51733;DHT22;39139;53.144;6.244;2023-04-03T06:43:25;4.00;99.90
51733;DHT22;39139;53.144;6.244;2023-04-03T06:45:51;4.20;99.90
51733;DHT22;39139;53.144;6.244;2023-04-03T06:48:17;4.60;99.90
51733;DHT22;39139;53.144;6.244;2023-04-03T06:50:43;5.00;99.90
51733;DHT22;39139;53.144;6.244;2023-04-03T06:53:09;5.40;99.90
51733;DHT22;39139;53.144;6.244;2023-04-03T06:55:35;5.80;99.90
51733;DHT22;39139;53.144;6.244;2023-04-03T06:58:01;5.90;99.90
51733;DHT22;39139;53.144;6.244;2023-04-03T07:00:27;6.10;99.90
51733;DHT22;39139;53.144;6.244;2023-04-03T07:02:53;5.80;99.90
51733;DHT22;39139;53.144;6.244;2023-04-03T07:05:19;5.50;99.90
51733;DHT22;39139;53.144;6.244;2023-04-03T07:07:44;5.00;99.90
51733;DHT22;39139;53.144;6.244;2023-04-03T07:10:10;4.70;99.90
51733;DHT22;39139;53.144;6.244;2023-04-03T07:12:36;4.40;99.90
51733;DHT22;39139;53.144;6.244;2023-04-03T07:15:04;4.30;99.90
51733;DHT22;39139;53.144;6.244;2023-04-03T07:17:30;4.10;99.90
51733;DHT22;39139;53.144;6.244;2023-04-03T07:19:55;3.90;99.90
51733;DHT22;39139;53.144;6.244;2023-04-03T07:22:23;4.00;99.90
51733;DHT22;39139;53.144;6.244;2023-04-03T07:24:49;3.90;99.90
51733;DHT22;39139;53.144;6.244;2023-04-03T07:27:15;3.90;99.90
51733;DHT22;39139;53.144;6.244;2023-04-03T07:29:40;3.90;99.90
51733;DHT22;39139;53.144;6.244;2023-04-03T07:32:06;4.00;99.90
51733;DHT22;39139;53.144;6.244;2023-04-03T07:34:32;4.10;99.90
51733;DHT22;39139;53.144;6.244;2023-04-03T07:36:58;5.40;99.90
51733;DHT22;39139;53.144;6.244;2023-04-03T07:39:24;5.10;99.90
51733;DHT22;39139;53.144;6.244;2023-04-03T07:41:50;5.40;99.90
51733;DHT22;39139;53.144;6.244;2023-04-03T07:44:16;5.90;99.90
51733;DHT22;39139;53.144;6.244;2023-04-03T07:46:42;7.20;99.90
51733;DHT22;39139;53.144;6.244;2023-04-03T07:49:08;6.60;99.90
51733;DHT22;39139;53.144;6.244;2023-04-03T07:51:34;7.00;99.90
51733;DHT22;39139;53.144;6.244;2023-04-03T07:54:00;7.20;99.90
51733;DHT22;39139;53.144;6.244;2023-04-03T07:56:25;7.40;99.90
51733;DHT22;39139;53.144;6.244;2023-04-03T07:58:51;7.80;99.90
51733;DHT22;39139;53.144;6.244;2023-04-03T08:01:16;7.90;99.90
51733;DHT22;39139;53.144;6.244;2023-04-03T08:03:42;8.30;99.90
51733;DHT22;39139;53.144;6.244;2023-04-03T08:06:08;8.70;99.90
51733;DHT22;39139;53.144;6.244;2023-04-03T08:08:35;9.30;99.90
51733;DHT22;39139;53.144;6.244;2023-04-03T08:11:01;9.30;99.90
51733;DHT22;39139;53.144;6.244;2023-04-03T08:13:29;9.80;99.90
51733;DHT22;39139;53.144;6.244;2023-04-03T08:15:55;10.50;99.90
51733;DHT22;39139;53.144;6.244;2023-04-03T08:18:23;10.60;99.90
51733;DHT22;39139;53.144;6.244;2023-04-03T08:20:50;10.90;99.90
51733;DHT22;39139;53.144;6.244;2023-04-03T08:23:17;11.60;99.90
51733;DHT22;39139;53.144;6.244;2023-04-03T08:25:44;11.90;98.60
51733;DHT22;39139;53.144;6.244;2023-04-03T08:28:11;12.20;99.70
51733;DHT22;39139;53.144;6.244;2023-04-03T08:30:39;12.30;98.90
51733;DHT22;39139;53.144;6.244;2023-04-03T08:33:05;12.60;98.90
51733;DHT22;39139;53.144;6.244;2023-04-03T08:35:31;12.80;97.90
51733;DHT22;39139;53.144;6.244;2023-04-03T08:37:57;13.20;96.50
51733;DHT22;39139;53.144;6.244;2023-04-03T08:40:23;13.30;96.90
51733;DHT22;39139;53.144;6.244;2023-04-03T08:45:52;13.30;93.00
51733;DHT22;39139;53.144;6.244;2023-04-03T08:48:33;13.40;92.90
51733;DHT22;39139;53.144;6.244;2023-04-03T08:51:14;13.20;93.80
51733;DHT22;39139;53.144;6.244;2023-04-03T08:53:44;13.40;93.90
51733;DHT22;39139;53.144;6.244;2023-04-03T08:56:13;14.20;93.40
51733;DHT22;39139;53.144;6.244;2023-04-03T08:58:55;13.40;94.30
51733;DHT22;39139;53.144;6.244;2023-04-03T09:01:39;13.50;92.20
51733;DHT22;39139;53.144;6.244;2023-04-03T09:04:13;13.50;92.70
51733;DHT22;39139;53.144;6.244;2023-04-03T09:06:39;13.80;92.40
51733;DHT22;39139;53.144;6.244;2023-04-03T09:17:09;14.30;89.90
51733;DHT22;39139;53.144;6.244;2023-04-03T09:19:51;14.40;90.70
51733;DHT22;39139;53.144;6.244;2023-04-03T09:22:27;14.10;91.80
51733;DHT22;39139;53.144;6.244;2023-04-03T09:25:00;13.90;92.20
51733;DHT22;39139;53.144;6.244;2023-04-03T09:27:26;14.30;91.20
51733;DHT22;39139;53.144;6.244;2023-04-03T09:29:54;14.80;90.90
51733;DHT22;39139;53.144;6.244;2023-04-03T09:32:32;15.10;89.00
51733;DHT22;39139;53.144;6.244;2023-04-03T09:35:15;15.00;86.90
51733;DHT22;39139;53.144;6.244;2023-04-03T09:37:44;14.70;85.30
51733;DHT22;39139;53.144;6.244;2023-04-03T09:42:53;14.20;86.50
51733;DHT22;39139;53.144;6.244;2023-04-03T09:45:31;13.70;90.20
51733;DHT22;39139;53.144;6.244;2023-04-03T09:48:12;14.20;86.50
51733;DHT22;39139;53.144;6.244;2023-04-03T09:50:56;14.00;86.90
51733;DHT22;39139;53.144;6.244;2023-04-03T09:53:37;13.70;87.90
51733;DHT22;39139;53.144;6.244;2023-04-03T09:59:12;13.00;89.50
51733;DHT22;39139;53.144;6.244;2023-04-03T10:01:42;12.90;90.10
51733;DHT22;39139;53.144;6.244;2023-04-03T10:07:01;12.40;88.40
51733;DHT22;39139;53.144;6.244;2023-04-03T10:09:31;12.00;85.40
51733;DHT22;39139;53.144;6.244;2023-04-03T10:12:06;11.70;87.00
51733;DHT22;39139;53.144;6.244;2023-04-03T10:14:37;11.90;86.80
51733;DHT22;39139;53.144;6.244;2023-04-03T10:19:58;12.00;89.20
51733;DHT22;39139;53.144;6.244;2023-04-03T10:25:09;12.20;90.40
51733;DHT22;39139;53.144;6.244;2023-04-03T10:36:32;12.00;87.30
51733;DHT22;39139;53.144;6.244;2023-04-03T10:39:29;11.90;86.50
51733;DHT22;39139;53.144;6.244;2023-04-03T10:42:08;11.90;85.20
51733;DHT22;39139;53.144;6.244;2023-04-03T10:50:58;11.90;89.90
51733;DHT22;39139;53.144;6.244;2023-04-03T10:53:18;11.80;86.70
51733;DHT22;39139;53.144;6.244;2023-04-03T10:55:58;11.80;87.10
51733;DHT22;39139;53.144;6.244;2023-04-03T10:58:32;11.90;87.60
51733;DHT22;39139;53.144;6.244;2023-04-03T11:01:07;12.00;87.60
51733;DHT22;39139;53.144;6.244;2023-04-03T11:03:41;12.10;88.40
51733;DHT22;39139;53.144;6.244;2023-04-03T11:06:11;12.20;86.30
51733;DHT22;39139;53.144;6.244;2023-04-03T11:09:02;12.20;85.90
51733;DHT22;39139;53.144;6.244;2023-04-03T11:11:37;12.10;85.00
51733;DHT22;39139;53.144;6.244;2023-04-03T11:14:28;12.00;84.60
51733;DHT22;39139;53.144;6.244;2023-04-03T11:17:15;11.90;82.20
51733;DHT22;39139;53.144;6.244;2023-04-03T11:22:54;11.60;84.20
51733;DHT22;39139;53.144;6.244;2023-04-03T11:25:25;11.70;85.80
51733;DHT22;39139;53.144;6.244;2023-04-03T11:28:01;11.60;82.80
51733;DHT22;39139;53.144;6.244;2023-04-03T11:36:03;11.20;84.30
51733;DHT22;39139;53.144;6.244;2023-04-03T11:38:33;11.40;85.90
51733;DHT22;39139;53.144;6.244;2023-04-03T11:41:03;11.70;85.00
51733;DHT22;39139;53.144;6.244;2023-04-03T11:43:32;11.80;86.50
51733;DHT22;39139;53.144;6.244;2023-04-03T11:46:03;11.70;84.70
51733;DHT22;39139;53.144;6.244;2023-04-03T11:51:01;11.60;84.60
51733;DHT22;39139;53.144;6.244;2023-04-03T11:53:37;11.80;85.30
51733;DHT22;39139;53.144;6.244;2023-04-03T12:02:14;12.10;83.10
51733;DHT22;39139;53.144;6.244;2023-04-03T12:08:22;12.10;84.70
51733;DHT22;39139;53.144;6.244;2023-04-03T12:13:34;12.00;83.80
51733;DHT22;39139;53.144;6.244;2023-04-03T12:16:01;12.10;83.50
51733;DHT22;39139;53.144;6.244;2023-04-03T12:18:41;11.70;82.90
51733;DHT22;39139;53.144;6.244;2023-04-03T12:21:08;11.70;84.70
51733;DHT22;39139;53.144;6.244;2023-04-03T12:23:37;12.00;86.60
51733;DHT22;39139;53.144;6.244;2023-04-03T12:26:22;12.00;83.60
51733;DHT22;39139;53.144;6.244;2023-04-03T12:28:50;11.90;84.20
51733;DHT22;39139;53.144;6.244;2023-04-03T12:31:19;11.70;84.30
51733;DHT22;39139;53.144;6.244;2023-04-03T12:36:41;12.00;87.60
51733;DHT22;39139;53.144;6.244;2023-04-03T12:39:39;12.20;87.30
51733;DHT22;39139;53.144;6.244;2023-04-03T12:42:15;12.30;85.70
51733;DHT22;39139;53.144;6.244;2023-04-03T12:45:15;12.50;87.00
51733;DHT22;39139;53.144;6.244;2023-04-03T12:47:43;12.20;84.30
51733;DHT22;39139;53.144;6.244;2023-04-03T12:50:31;12.10;85.10
51733;DHT22;39139;53.144;6.244;2023-04-03T12:53:07;11.90;85.50
51733;DHT22;39139;53.144;6.244;2023-04-03T12:55:37;11.90;85.50
51733;DHT22;39139;53.144;6.244;2023-04-03T13:00:46;12.60;85.10
51733;DHT22;39139;53.144;6.244;2023-04-03T13:03:24;12.00;86.30
51733;DHT22;39139;53.144;6.244;2023-04-03T13:05:58;12.20;85.80
51733;DHT22;39139;53.144;6.244;2023-04-03T13:08:24;12.10;86.10
51733;DHT22;39139;53.144;6.244;2023-04-03T13:11:06;12.20;85.30
51733;DHT22;39139;53.144;6.244;2023-04-03T13:13:34;12.40;87.10
51733;DHT22;39139;53.144;6.244;2023-04-03T13:16:08;12.40;85.10
51733;DHT22;39139;53.144;6.244;2023-04-03T13:18:37;12.40;85.40
51733;DHT22;39139;53.144;6.244;2023-04-03T13:21:11;12.50;82.40
51733;DHT22;39139;53.144;6.244;2023-04-03T13:23:40;12.60;85.00
51733;DHT22;39139;53.144;6.244;2023-04-03T13:26:08;12.60;84.10
51733;DHT22;39139;53.144;6.244;2023-04-03T13:28:34;12.60;84.20
51733;DHT22;39139;53.144;6.244;2023-04-03T13:31:17;12.30;84.40
51733;DHT22;39139;53.144;6.244;2023-04-03T13:33:55;12.60;87.50
51733;DHT22;39139;53.144;6.244;2023-04-03T13:36:34;13.60;89.00
51733;DHT22;39139;53.144;6.244;2023-04-03T13:41:52;12.90;88.10
51733;DHT22;39139;53.144;6.244;2023-04-03T13:44:25;13.20;89.60
51733;DHT22;39139;53.144;6.244;2023-04-03T13:46:57;12.90;85.50
51733;DHT22;39139;53.144;6.244;2023-04-03T13:49:36;13.00;84.10
51733;DHT22;39139;53.144;6.244;2023-04-03T13:52:30;12.80;85.80
51733;DHT22;39139;53.144;6.244;2023-04-03T14:00:47;12.80;85.20
51733;DHT22;39139;53.144;6.244;2023-04-03T14:03:32;12.60;84.70
51733;DHT22;39139;53.144;6.244;2023-04-03T14:05:58;12.40;84.80
51733;DHT22;39139;53.144;6.244;2023-04-03T14:08:26;12.50;83.60
51733;DHT22;39139;53.144;6.244;2023-04-03T14:10:53;12.20;82.90
51733;DHT22;39139;53.144;6.244;2023-04-03T14:13:20;12.10;83.90
51733;DHT22;39139;53.144;6.244;2023-04-03T14:15:47;11.90;83.30
51733;DHT22;39139;53.144;6.244;2023-04-03T14:18:17;11.80;82.80
51733;DHT22;39139;53.144;6.244;2023-04-03T14:20:43;11.60;84.60
51733;DHT22;39139;53.144;6.244;2023-04-03T14:23:09;11.40;83.60
51733;DHT22;39139;53.144;6.244;2023-04-03T14:25:36;11.30;84.20
51733;DHT22;39139;53.144;6.244;2023-04-03T14:28:14;11.30;84.50
51733;DHT22;39139;53.144;6.244;2023-04-03T14:30:40;11.20;83.40
51733;DHT22;39139;53.144;6.244;2023-04-03T14:33:06;11.10;84.00
51733;DHT22;39139;53.144;6.244;2023-04-03T14:35:36;11.10;84.30
51733;DHT22;39139;53.144;6.244;2023-04-03T14:38:02;11.30;86.10
51733;DHT22;39139;53.144;6.244;2023-04-03T14:40:28;11.00;84.20
51733;DHT22;39139;53.144;6.244;2023-04-03T14:42:54;11.00;84.50
51733;DHT22;39139;53.144;6.244;2023-04-03T14:45:21;11.00;84.60
51733;DHT22;39139;53.144;6.244;2023-04-03T14:47:49;11.00;86.60
51733;DHT22;39139;53.144;6.244;2023-04-03T14:50:20;10.90;89.40
51733;DHT22;39139;53.144;6.244;2023-04-03T14:52:47;10.90;90.10
51733;DHT22;39139;53.144;6.244;2023-04-03T14:55:19;10.90;90.50
51733;DHT22;39139;53.144;6.244;2023-04-03T14:57:45;10.90;91.20
51733;DHT22;39139;53.144;6.244;2023-04-03T15:00:16;11.30;91.50
51733;DHT22;39139;53.144;6.244;2023-04-03T15:02:42;10.90;92.20
51733;DHT22;39139;53.144;6.244;2023-04-03T15:05:09;10.90;93.00
51733;DHT22;39139;53.144;6.244;2023-04-03T15:07:41;10.80;92.90
51733;DHT22;39139;53.144;6.244;2023-04-03T15:10:15;10.90;93.00
51733;DHT22;39139;53.144;6.244;2023-04-03T15:12:42;10.90;92.80
51733;DHT22;39139;53.144;6.244;2023-04-03T15:15:09;10.80;92.60
51733;DHT22;39139;53.144;6.244;2023-04-03T15:17:36;10.90;91.80
51733;DHT22;39139;53.144;6.244;2023-04-03T15:20:02;10.70;92.60
51733;DHT22;39139;53.144;6.244;2023-04-03T15:22:28;10.80;92.80
51733;DHT22;39139;53.144;6.244;2023-04-03T15:24:54;10.50;91.90
51733;DHT22;39139;53.144;6.244;2023-04-03T15:27:19;10.60;92.60
51733;DHT22;39139;53.144;6.244;2023-04-03T15:29:45;10.60;92.90
51733;DHT22;39139;53.144;6.244;2023-04-03T15:32:11;10.50;93.70
51733;DHT22;39139;53.144;6.244;2023-04-03T15:34:38;10.50;94.60
51733;DHT22;39139;53.144;6.244;2023-04-03T15:37:04;10.40;95.20
51733;DHT22;39139;53.144;6.244;2023-04-03T15:39:31;10.30;94.60
51733;DHT22;39139;53.144;6.244;2023-04-03T15:41:57;10.60;94.70
51733;DHT22;39139;53.144;6.244;2023-04-03T15:44:29;10.30;94.80
51733;DHT22;39139;53.144;6.244;2023-04-03T15:46:54;10.30;95.30
51733;DHT22;39139;53.144;6.244;2023-04-03T15:49:21;10.30;95.40
51733;DHT22;39139;53.144;6.244;2023-04-03T15:51:47;10.40;95.20
51733;DHT22;39139;53.144;6.244;2023-04-03T15:54:13;10.80;95.20
51733;DHT22;39139;53.144;6.244;2023-04-03T15:56:38;10.30;94.80
51733;DHT22;39139;53.144;6.244;2023-04-03T15:59:04;10.10;95.10
51733;DHT22;39139;53.144;6.244;2023-04-03T16:01:31;10.10;95.20
51733;DHT22;39139;53.144;6.244;2023-04-03T16:03:56;10.00;95.50
51733;DHT22;39139;53.144;6.244;2023-04-03T16:06:24;10.00;95.80
51733;DHT22;39139;53.144;6.244;2023-04-03T16:08:51;10.00;95.00
51733;DHT22;39139;53.144;6.244;2023-04-03T16:11:16;10.00;94.70
51733;DHT22;39139;53.144;6.244;2023-04-03T16:13:43;9.90;94.50
51733;DHT22;39139;53.144;6.244;2023-04-03T16:16:09;9.80;94.60
51733;DHT22;39139;53.144;6.244;2023-04-03T16:18:35;9.70;95.30
51733;DHT22;39139;53.144;6.244;2023-04-03T16:21:01;9.80;95.20
51733;DHT22;39139;53.144;6.244;2023-04-03T16:23:27;9.70;95.80
51733;DHT22;39139;53.144;6.244;2023-04-03T16:25:53;9.60;95.80
51733;DHT22;39139;53.144;6.244;2023-04-03T16:28:18;9.50;95.70
51733;DHT22;39139;53.144;6.244;2023-04-03T16:30:47;9.50;95.50
51733;DHT22;39139;53.144;6.244;2023-04-03T16:33:14;9.50;95.20
51733;DHT22;39139;53.144;6.244;2023-04-03T16:35:40;9.30;95.90
51733;DHT22;39139;53.144;6.244;2023-04-03T16:38:09;9.30;96.40
51733;DHT22;39139;53.144;6.244;2023-04-03T16:40:35;10.10;97.10
51733;DHT22;39139;53.144;6.244;2023-04-03T16:43:01;9.30;97.30
51733;DHT22;39139;53.144;6.244;2023-04-03T16:45:27;9.10;97.30
51733;DHT22;39139;53.144;6.244;2023-04-03T16:47:53;9.00;97.20
51733;DHT22;39139;53.144;6.244;2023-04-03T16:50:19;8.90;97.70
51733;DHT22;39139;53.144;6.244;2023-04-03T16:52:47;8.90;97.80
51733;DHT22;39139;53.144;6.244;2023-04-03T16:55:13;8.90;98.20
51733;DHT22;39139;53.144;6.244;2023-04-03T16:57:39;8.80;98.10
51733;DHT22;39139;53.144;6.244;2023-04-03T17:00:05;9.70;97.70
51733;DHT22;39139;53.144;6.244;2023-04-03T17:02:31;8.70;97.60
51733;DHT22;39139;53.144;6.244;2023-04-03T17:04:57;8.50;97.70
51733;DHT22;39139;53.144;6.244;2023-04-03T17:07:24;8.60;98.50
51733;DHT22;39139;53.144;6.244;2023-04-03T17:09:51;8.60;98.10